Time;durP1;ratioP1;P1;durP2;ratioP2;P2;SDS_P1;SDS_P2;PMS_P1;PMS_P2;Temp;Humidity;BMP_temperature;BMP_pressure;BME280_temperature;BME280_humidity;BME280_pressure;Samples;Min_cycle;Max_cycle;Signal;HPM_P1;HPM_P2
2021/03/25 00:00:43;;;;;;;21.97;11.67;;;7.30;99.90;;;;;;4985311;28;20202;-86
2021/03/25 00:03:14;;;;;;;12.43;7.00;;;7.30;99.90;;;;;;4970684;28;20222;-86
2021/03/25 00:05:40;;;;;;;22.60;11.60;;;7.20;99.90;;;;;;4985320;28;20277;-86
2021/03/25 00:08:11;;;;;;;19.80;11.73;;;7.20;99.90;;;;;;4985757;28;20223;-89
2021/03/25 00:10:37;;;;;;;22.37;12.90;;;7.10;99.90;;;;;;4983667;28;20223;-89
2021/03/25 00:13:04;;;;;;;19.77;11.73;;;7.10;99.90;;;;;;4984289;28;20230;-87
2021/03/25 00:15:31;;;;;;;21.00;11.63;;;7.00;99.90;;;;;;4951995;28;20198;-87
2021/03/25 00:17:57;;;;;;;21.97;10.43;;;7.00;99.90;;;;;;4986923;28;20223;-88
2021/03/25 00:20:23;;;;;;;23.17;10.70;;;6.90;99.90;;;;;;5002579;28;20223;-89
2021/03/25 00:22:49;;;;;;;20.50;11.93;;;6.90;99.90;;;;;;4985397;28;20276;-88
2021/03/25 00:25:23;;;;;;;30.37;13.47;;;6.90;99.90;;;;;;4983641;28;20216;-87
2021/03/25 00:27:48;;;;;;;17.03;10.03;;;7.00;99.90;;;;;;4999033;28;20230;-86
2021/03/25 00:30:16;;;;;;;15.13;11.13;;;7.00;99.90;;;;;;4967227;28;20191;-86
2021/03/25 00:32:42;;;;;;;24.73;12.93;;;7.10;99.90;;;;;;4981291;28;20243;-86
2021/03/25 00:35:10;;;;;;;20.87;10.97;;;7.10;99.90;;;;;;4980734;28;20668;-87
2021/03/25 00:37:36;;;;;;;17.37;11.97;;;7.10;99.90;;;;;;4978066;28;20797;-88
2021/03/25 00:40:05;;;;;;;24.30;11.10;;;7.10;99.90;;;;;;4996275;28;20227;-88
2021/03/25 00:42:30;;;;;;;24.07;12.90;;;7.10;99.90;;;;;;4998194;28;20764;-88
2021/03/25 00:44:56;;;;;;;19.33;11.63;;;7.10;99.90;;;;;;4982167;28;20676;-87
2021/03/25 00:47:22;;;;;;;22.40;9.70;;;7.20;99.90;;;;;;4981157;28;20222;-87
2021/03/25 00:49:48;;;;;;;17.13;10.40;;;7.10;99.90;;;;;;4965090;28;20234;-89
2021/03/25 00:52:14;;;;;;;17.93;8.77;;;7.20;99.90;;;;;;4999233;28;20219;-88
2021/03/25 00:54:40;;;;;;;26.30;12.73;;;7.20;99.90;;;;;;4959424;28;22850;-86
2021/03/25 00:57:06;;;;;;;26.60;11.87;;;7.20;99.90;;;;;;4999718;28;20191;-87
2021/03/25 00:59:32;;;;;;;22.60;11.67;;;7.20;99.90;;;;;;4950629;28;20302;-87
2021/03/25 01:01:59;;;;;;;24.57;10.10;;;7.20;99.90;;;;;;4967549;28;20571;-88
2021/03/25 01:04:24;;;;;;;21.33;12.40;;;7.20;99.90;;;;;;4967611;28;20296;-87
2021/03/25 01:06:50;;;;;;;17.80;11.17;;;7.20;99.90;;;;;;4984705;28;20215;-88
2021/03/25 01:09:23;;;;;;;26.90;11.73;;;7.20;99.90;;;;;;5004053;28;20942;-88
2021/03/25 01:11:50;;;;;;;18.67;9.77;;;7.10;99.90;;;;;;5002072;28;20230;-89
2021/03/25 01:14:20;;;;;;;15.73;9.27;;;7.00;99.90;;;;;;5002382;28;20301;-89
2021/03/25 01:16:46;;;;;;;19.03;12.23;;;6.90;99.90;;;;;;5001761;28;20257;-87
2021/03/25 01:19:15;;;;;;;24.93;12.93;;;6.90;99.90;;;;;;4974204;28;20295;-88
2021/03/25 01:21:40;;;;;;;21.23;10.07;;;6.80;99.90;;;;;;4970619;28;20192;-88
2021/03/25 01:24:08;;;;;;;24.63;13.57;;;6.70;99.90;;;;;;4957759;28;20236;-88
2021/03/25 01:26:34;;;;;;;17.87;9.17;;;6.60;99.90;;;;;;4970761;28;20279;-87
2021/03/25 01:29:01;;;;;;;22.73;9.60;;;6.60;99.90;;;;;;4971501;28;20220;-88
2021/03/25 01:31:28;;;;;;;22.73;12.10;;;6.50;99.90;;;;;;4971034;28;20231;-87
2021/03/25 01:33:54;;;;;;;16.63;8.30;;;6.50;99.90;;;;;;4954900;28;20254;-86
2021/03/25 01:36:20;;;;;;;14.00;9.13;;;6.40;99.90;;;;;;4971647;28;20323;-87
2021/03/25 01:38:47;;;;;;;19.90;12.10;;;6.40;99.90;;;;;;4967378;28;20221;-88
2021/03/25 01:41:13;;;;;;;20.10;10.73;;;6.30;99.90;;;;;;4967336;28;20251;-86
2021/03/25 01:43:42;;;;;;;20.43;11.57;;;6.30;99.90;;;;;;4965581;28;20291;-87
2021/03/25 01:46:31;;;;;;;23.83;11.80;;;6.20;99.90;;;;;;4971524;28;20231;-88
2021/03/25 01:49:01;;;;;;;24.77;12.93;;;6.20;99.90;;;;;;4964638;28;20279;-88
2021/03/25 01:51:37;;;;;;;20.20;10.20;;;6.10;99.90;;;;;;4970490;28;20606;-86
2021/03/25 01:54:12;;;;;;;21.53;11.20;;;6.10;99.90;;;;;;4971792;28;20238;-87
2021/03/25 01:56:58;;;;;;;11.07;9.03;;;6.10;99.90;;;;;;4969196;28;20223;-87
2021/03/25 02:00:01;;;;;;;26.53;10.60;;;6.00;99.90;;;;;;4985238;28;20228;-86
2021/03/25 02:03:03;;;;;;;21.30;10.77;;;5.90;99.90;;;;;;4971143;28;20633;-86
2021/03/25 02:05:51;;;;;;;14.57;8.97;;;5.90;99.90;;;;;;4970513;28;20220;-87
2021/03/25 02:08:21;;;;;;;27.83;8.30;;;5.90;99.90;;;;;;4970655;28;20701;-89
2021/03/25 02:11:01;;;;;;;24.97;12.70;;;5.80;99.90;;;;;;4968341;28;20227;-86
2021/03/25 02:13:46;;;;;;;17.43;12.53;;;5.80;99.90;;;;;;4970094;28;20235;-87
2021/03/25 02:16:38;;;;;;;14.23;9.17;;;5.70;99.90;;;;;;4967476;28;20270;-86
2021/03/25 02:19:28;;;;;;;16.27;10.10;;;5.70;99.90;;;;;;4988755;28;20331;-88
2021/03/25 02:22:05;;;;;;;15.33;11.60;;;5.70;99.90;;;;;;5000690;28;20246;-88
2021/03/25 02:24:48;;;;;;;18.27;8.53;;;5.60;99.90;;;;;;5002103;28;20226;-87
2021/03/25 02:27:38;;;;;;;16.53;10.70;;;5.60;99.90;;;;;;4977801;28;20210;-87
2021/03/25 02:30:23;;;;;;;16.23;9.00;;;5.60;99.90;;;;;;4993328;28;20235;-86
2021/03/25 02:32:55;;;;;;;21.83;12.20;;;5.60;99.90;;;;;;4982887;28;20223;-87
2021/03/25 02:35:37;;;;;;;17.13;9.20;;;5.60;99.90;;;;;;4983169;28;20224;-86
2021/03/25 02:38:13;;;;;;;17.00;9.40;;;5.60;99.90;;;;;;4981634;28;20685;-86
2021/03/25 02:40:47;;;;;;;16.73;10.43;;;5.50;99.90;;;;;;4983286;28;20297;-89
2021/03/25 02:43:22;;;;;;;17.23;10.27;;;5.50;99.90;;;;;;4983673;28;20716;-87
2021/03/25 02:46:11;;;;;;;14.27;9.37;;;5.40;99.90;;;;;;4999401;28;20333;-86
2021/03/25 02:48:40;;;;;;;14.40;8.63;;;5.40;99.90;;;;;;4983198;28;20195;-89
2021/03/25 02:51:36;;;;;;;15.23;10.73;;;5.40;99.90;;;;;;4995011;28;20209;-88
2021/03/25 02:54:02;;;;;;;19.20;10.30;;;5.40;99.90;;;;;;4983823;28;20580;-88
2021/03/25 02:57:07;;;;;;;14.27;8.53;;;5.30;99.90;;;;;;4983764;28;20215;-88
2021/03/25 02:59:41;;;;;;;11.43;8.67;;;5.30;99.90;;;;;;4982440;28;20211;-87
2021/03/25 03:02:33;;;;;;;24.00;9.10;;;5.30;99.90;;;;;;5004987;28;20322;-88
2021/03/25 03:05:06;;;;;;;19.60;11.00;;;5.30;99.90;;;;;;5001924;28;20285;-88
2021/03/25 03:07:40;;;;;;;22.50;9.00;;;5.20;99.90;;;;;;4986693;28;20587;-88
2021/03/25 03:10:10;;;;;;;19.10;10.30;;;5.20;99.90;;;;;;4984535;28;20227;-89
2021/03/25 03:12:42;;;;;;;13.10;8.17;;;5.20;99.90;;;;;;4994635;28;21154;-88
2021/03/25 03:15:14;;;;;;;13.50;10.03;;;5.10;99.90;;;;;;4987845;28;20176;-87
2021/03/25 03:17:47;;;;;;;13.77;10.30;;;5.10;99.90;;;;;;4986288;28;20284;-87
2021/03/25 03:20:26;;;;;;;25.97;9.57;;;5.10;99.90;;;;;;4986657;28;20244;-86
2021/03/25 03:22:53;;;;;;;15.10;9.87;;;5.00;99.90;;;;;;4986262;28;20256;-86
2021/03/25 03:25:22;;;;;;;15.73;9.47;;;5.00;99.90;;;;;;4985781;28;20223;-86
2021/03/25 03:28:02;;;;;;;15.40;9.97;;;5.00;99.90;;;;;;5004411;28;20226;-87
2021/03/25 03:30:42;;;;;;;15.10;9.47;;;5.00;99.90;;;;;;4987120;28;20195;-86
2021/03/25 03:33:10;;;;;;;16.87;10.77;;;5.00;99.90;;;;;;5006083;28;20186;-88
2021/03/25 03:36:06;;;;;;;13.53;9.40;;;5.00;99.90;;;;;;5003099;28;20401;-85
2021/03/25 03:38:40;;;;;;;22.93;11.17;;;5.00;99.90;;;;;;4986530;28;20215;-85
2021/03/25 03:41:09;;;;;;;18.80;13.50;;;5.00;99.90;;;;;;5004662;28;20216;-86
2021/03/25 03:43:37;;;;;;;17.67;11.40;;;5.00;99.90;;;;;;4995969;28;20235;-86
2021/03/25 03:46:11;;;;;;;23.90;9.90;;;5.00;99.90;;;;;;5003554;28;20451;-88
2021/03/25 03:48:44;;;;;;;20.63;12.13;;;5.00;99.90;;;;;;4986172;28;20237;-88
2021/03/25 03:51:15;;;;;;;12.97;10.43;;;5.00;99.90;;;;;;4987092;28;20179;-85
2021/03/25 03:53:41;;;;;;;21.73;13.87;;;5.00;99.90;;;;;;4986547;28;20235;-86
2021/03/25 03:56:38;;;;;;;23.60;12.00;;;5.00;99.90;;;;;;4953160;28;20226;-86
2021/03/25 03:59:10;;;;;;;23.10;12.77;;;5.00;99.90;;;;;;4982535;28;20212;-88
2021/03/25 04:01:38;;;;;;;21.60;11.97;;;5.10;99.90;;;;;;4994651;28;20783;-88
2021/03/25 04:04:09;;;;;;;17.03;11.27;;;5.10;99.90;;;;;;4996365;28;20584;-88
2021/03/25 04:06:43;;;;;;;16.07;11.80;;;5.10;99.90;;;;;;4974834;28;20255;-86
2021/03/25 04:09:22;;;;;;;18.27;13.07;;;5.10;99.90;;;;;;5003052;28;20210;-86
2021/03/25 04:12:08;;;;;;;28.40;12.77;;;5.10;99.90;;;;;;5001796;28;20334;-86
2021/03/25 04:14:42;;;;;;;18.37;11.87;;;5.00;99.90;;;;;;4985668;28;20222;-88
2021/03/25 04:17:10;;;;;;;23.10;12.90;;;5.00;99.90;;;;;;4992997;28;20223;-88
2021/03/25 04:19:43;;;;;;;18.97;12.03;;;5.00;99.90;;;;;;4984694;28;20361;-86
2021/03/25 04:22:14;;;;;;;19.93;11.10;;;5.00;99.90;;;;;;4985909;28;20215;-87
2021/03/25 04:24:46;;;;;;;20.40;12.37;;;5.00;99.90;;;;;;5003541;28;20302;-86
2021/03/25 04:27:19;;;;;;;24.50;11.27;;;5.00;99.90;;;;;;4986638;28;20183;-87
2021/03/25 04:29:52;;;;;;;22.00;15.53;;;5.00;99.90;;;;;;5003242;28;20219;-88
2021/03/25 04:32:18;;;;;;;28.70;12.50;;;5.00;99.90;;;;;;4985429;28;20223;-86
2021/03/25 04:34:46;;;;;;;31.33;14.37;;;5.00;99.90;;;;;;5003968;28;20225;-87
2021/03/25 04:37:12;;;;;;;27.10;15.20;;;5.00;99.90;;;;;;4984036;28;20215;-86
2021/03/25 04:39:39;;;;;;;31.13;15.50;;;5.00;99.90;;;;;;4985147;28;20195;-87
2021/03/25 04:42:06;;;;;;;21.17;12.67;;;5.00;99.90;;;;;;5000651;28;20198;-88
2021/03/25 04:44:43;;;;;;;24.63;14.50;;;5.00;99.90;;;;;;4967207;28;20237;-86
2021/03/25 04:47:20;;;;;;;28.33;13.93;;;5.00;99.90;;;;;;4984340;28;20259;-86
2021/03/25 04:49:57;;;;;;;25.87;12.60;;;5.00;99.90;;;;;;5002422;28;20226;-86
2021/03/25 04:52:26;;;;;;;22.33;13.40;;;5.00;99.90;;;;;;5003401;28;20242;-84
2021/03/25 04:54:53;;;;;;;24.80;13.73;;;5.00;99.90;;;;;;5003193;28;20223;-87
2021/03/25 04:57:27;;;;;;;19.73;14.07;;;5.00;99.90;;;;;;4985663;28;20672;-88
2021/03/25 04:59:55;;;;;;;31.30;13.30;;;5.00;99.90;;;;;;4985803;28;20277;-87
2021/03/25 05:02:21;;;;;;;26.67;17.63;;;4.90;99.90;;;;;;4984831;28;20215;-88
2021/03/25 05:04:50;;;;;;;31.90;16.17;;;4.90;99.90;;;;;;4984285;28;20273;-88
2021/03/25 05:07:26;;;;;;;20.23;11.57;;;4.90;99.90;;;;;;4993595;28;20207;-88
2021/03/25 05:09:53;;;;;;;29.90;16.93;;;4.90;99.90;;;;;;5001225;28;20227;-88
2021/03/25 05:12:19;;;;;;;30.70;14.87;;;4.90;99.90;;;;;;4986113;28;20287;-87
2021/03/25 05:14:48;;;;;;;21.03;13.03;;;5.00;99.90;;;;;;5000804;28;20226;-88
2021/03/25 05:17:41;;;;;;;21.27;11.70;;;5.00;99.90;;;;;;4984712;28;20207;-88
2021/03/25 05:20:30;;;;;;;23.30;17.57;;;5.00;99.90;;;;;;5003259;28;21151;-88
2021/03/25 05:23:08;;;;;;;29.30;18.53;;;5.00;99.90;;;;;;5003114;28;20795;-88
2021/03/25 05:26:07;;;;;;;36.00;15.43;;;5.00;99.90;;;;;;4995530;28;20277;-86
2021/03/25 05:28:39;;;;;;;23.13;16.03;;;5.00;99.90;;;;;;4979799;28;20301;-88
2021/03/25 05:31:07;;;;;;;33.20;14.00;;;5.00;99.90;;;;;;5002893;28;20246;-86
2021/03/25 05:33:35;;;;;;;36.17;18.10;;;5.00;99.90;;;;;;4968731;28;20227;-86
2021/03/25 05:36:05;;;;;;;37.47;13.07;;;5.10;99.90;;;;;;5002841;28;20175;-85
2021/03/25 05:38:31;;;;;;;27.67;15.00;;;5.10;99.90;;;;;;4983771;28;20223;-86
2021/03/25 05:41:02;;;;;;;20.17;16.07;;;5.10;99.90;;;;;;4967300;28;20715;-88
2021/03/25 05:43:49;;;;;;;35.20;15.53;;;5.20;99.90;;;;;;4978011;28;20239;-87
2021/03/25 05:46:31;;;;;;;21.43;16.00;;;5.20;99.90;;;;;;5002065;28;20215;-88
2021/03/25 05:49:03;;;;;;;21.57;15.30;;;5.30;99.90;;;;;;4983429;28;20223;-87
2021/03/25 05:51:49;;;;;;;28.47;17.33;;;5.40;99.90;;;;;;5001398;28;20218;-88
2021/03/25 05:54:32;;;;;;;22.47;13.57;;;5.50;99.90;;;;;;5003465;28;20194;-86
2021/03/25 05:57:10;;;;;;;21.50;14.10;;;5.60;99.90;;;;;;4983795;28;20219;-87
2021/03/25 05:59:44;;;;;;;25.47;14.97;;;5.80;99.90;;;;;;4984034;28;20219;-88
2021/03/25 06:02:25;;;;;;;18.17;11.63;;;5.80;99.90;;;;;;4976054;28;20268;-87
2021/03/25 06:04:52;;;;;;;22.83;12.93;;;5.80;99.90;;;;;;5000343;28;20262;-89
2021/03/25 06:07:52;;;;;;;29.63;18.47;;;5.80;99.90;;;;;;4983012;28;20211;-89
2021/03/25 06:10:52;;;;;;;30.33;15.20;;;5.90;99.90;;;;;;4983969;28;20203;-87
2021/03/25 06:13:41;;;;;;;30.27;14.50;;;5.90;99.90;;;;;;4998476;28;20251;-88
2021/03/25 06:16:28;;;;;;;27.87;18.23;;;6.10;99.90;;;;;;4997786;28;20228;-87
2021/03/25 06:19:13;;;;;;;25.30;15.07;;;6.20;99.90;;;;;;4991502;28;20310;-89
2021/03/25 06:21:44;;;;;;;33.57;13.70;;;6.30;99.90;;;;;;4994355;28;20194;-89
2021/03/25 06:24:46;;;;;;;32.17;17.00;;;6.20;99.90;;;;;;5003536;28;20211;-88
2021/03/25 06:27:40;;;;;;;34.20;17.07;;;6.30;99.90;;;;;;4981538;28;20215;-89
2021/03/25 06:30:14;;;;;;;32.10;19.33;;;6.30;99.90;;;;;;4979573;28;20234;-88
2021/03/25 06:33:12;;;;;;;31.90;18.40;;;6.20;99.90;;;;;;4994827;28;20223;-87
2021/03/25 06:35:46;;;;;;;38.47;17.97;;;6.30;99.90;;;;;;4995724;28;20262;-88
2021/03/25 06:38:21;;;;;;;23.97;16.27;;;6.40;99.90;;;;;;4997465;28;20225;-88
2021/03/25 06:41:15;;;;;;;30.77;15.43;;;6.50;99.90;;;;;;4977999;28;20230;-89
2021/03/25 06:43:50;;;;;;;42.23;17.77;;;6.80;99.90;;;;;;4985472;28;20227;-87
2021/03/25 06:46:16;;;;;;;33.80;21.27;;;7.60;99.90;;;;;;5005909;28;20229;-88
2021/03/25 06:48:55;;;;;;;36.00;18.50;;;8.40;99.90;;;;;;4986976;28;20208;-88
2021/03/25 06:51:22;;;;;;;32.03;18.90;;;9.40;99.90;;;;;;5004993;28;20201;-87
2021/03/25 06:53:52;;;;;;;33.37;19.87;;;10.40;99.90;;;;;;4987147;28;20245;-88
2021/03/25 06:56:33;;;;;;;24.67;15.93;;;11.50;99.90;;;;;;4985906;28;20223;-89
2021/03/25 06:59:05;;;;;;;29.70;17.53;;;12.70;99.90;;;;;;4987003;28;20222;-88
2021/03/25 07:01:55;;;;;;;30.07;14.50;;;13.20;99.90;;;;;;4986077;28;20215;-88
2021/03/25 07:04:26;;;;;;;29.87;17.07;;;13.60;99.90;;;;;;4986142;28;20943;-87
2021/03/25 07:06:56;;;;;;;26.00;13.50;;;14.10;99.90;;;;;;4985685;28;20227;-86
2021/03/25 07:09:31;;;;;;;32.17;14.67;;;14.90;99.90;;;;;;4986973;28;20542;-88
2021/03/25 07:11:58;;;;;;;34.00;17.13;;;15.20;99.90;;;;;;5002912;28;20277;-88
2021/03/25 07:14:37;;;;;;;28.80;17.13;;;15.30;99.90;;;;;;4986307;28;20314;-87
2021/03/25 07:17:05;;;;;;;34.13;18.60;;;16.10;99.90;;;;;;5004334;28;20242;-87
2021/03/25 07:19:34;;;;;;;33.20;15.27;;;16.00;99.90;;;;;;5003916;28;20231;-88
2021/03/25 07:22:23;;;;;;;28.63;15.20;;;14.90;99.90;;;;;;5004078;28;20222;-87
2021/03/25 07:24:51;;;;;;;19.63;12.33;;;14.30;99.90;;;;;;4985953;28;20262;-88
2021/03/25 07:27:24;;;;;;;31.50;16.93;;;14.00;99.90;;;;;;4969962;28;20191;-87
2021/03/25 07:30:03;;;;;;;34.40;18.60;;;14.30;99.90;;;;;;4986394;28;20227;-90
2021/03/25 07:32:41;;;;;;;28.03;16.20;;;15.00;99.90;;;;;;4985186;28;21215;-87
2021/03/25 07:35:30;;;;;;;41.50;17.77;;;15.10;99.90;;;;;;5000550;28;20215;-90
2021/03/25 07:37:57;;;;;;;32.50;17.37;;;15.40;99.90;;;;;;4983624;28;20214;-87
2021/03/25 07:40:34;;;;;;;35.83;17.40;;;15.50;99.90;;;;;;4985341;28;20261;-87
2021/03/25 07:43:19;;;;;;;32.07;16.40;;;15.80;99.90;;;;;;4985749;28;20722;-87
2021/03/25 07:45:45;;;;;;;36.00;17.67;;;16.70;99.90;;;;;;5002241;28;20265;-86
2021/03/25 07:48:22;;;;;;;30.20;14.10;;;17.50;99.90;;;;;;4950112;28;20195;-88
2021/03/25 07:50:50;;;;;;;29.23;16.67;;;18.40;99.90;;;;;;4985372;28;20324;-86
2021/03/25 07:53:25;;;;;;;29.37;15.70;;;18.20;99.90;;;;;;5004153;28;20215;-88
2021/03/25 07:56:11;;;;;;;36.90;18.03;;;18.60;99.90;;;;;;4985806;28;20242;-88
2021/03/25 07:58:44;;;;;;;37.90;16.47;;;18.70;99.90;;;;;;5004549;28;20243;-89
2021/03/25 08:01:16;;;;;;;30.13;16.23;;;18.10;99.90;;;;;;5003950;28;20223;-87
2021/03/25 08:03:53;;;;;;;27.23;15.53;;;18.40;99.90;;;;;;4993809;28;20211;-88
2021/03/25 08:06:29;;;;;;;25.73;15.07;;;18.10;99.90;;;;;;4987697;28;20194;-88
2021/03/25 08:09:08;;;;;;;31.47;16.30;;;18.50;99.90;;;;;;5002406;28;20305;-88
2021/03/25 08:11:49;;;;;;;32.80;16.43;;;18.70;99.90;;;;;;5001910;28;20328;-89
2021/03/25 08:14:25;;;;;;;37.17;17.13;;;17.80;99.90;;;;;;4972005;28;20247;-88
2021/03/25 08:17:10;;;;;;;31.73;16.53;;;17.20;99.90;;;;;;5002186;28;20218;-89
2021/03/25 08:19:59;;;;;;;35.43;17.17;;;17.00;99.90;;;;;;4985663;28;20230;-88
2021/03/25 08:22:53;;;;;;;27.87;14.73;;;16.50;99.90;;;;;;4985768;28;20219;-87
2021/03/25 08:25:28;;;;;;;33.77;14.97;;;16.10;99.90;;;;;;5001392;28;20233;-87
2021/03/25 08:28:08;;;;;;;29.90;15.97;;;14.60;99.90;;;;;;4995958;28;20248;-87
2021/03/25 08:30:52;;;;;;;27.57;14.40;;;14.60;99.90;;;;;;5002817;28;21104;-89
2021/03/25 08:33:40;;;;;;;27.43;15.37;;;15.50;99.90;;;;;;5004796;28;20187;-87
2021/03/25 08:36:22;;;;;;;29.40;15.30;;;16.00;99.90;;;;;;5001672;28;20226;-85
2021/03/25 08:39:20;;;;;;;39.83;16.40;;;16.00;99.90;;;;;;4985637;28;20223;-87
2021/03/25 08:42:04;;;;;;;25.53;12.93;;;15.30;99.90;;;;;;4936723;28;20219;-87
2021/03/25 08:45:00;;;;;;;30.27;15.33;;;14.30;99.90;;;;;;4993170;28;20227;-89
2021/03/25 08:47:35;;;;;;;33.20;16.73;;;13.40;99.90;;;;;;4952865;28;20234;-89
2021/03/25 08:50:11;;;;;;;25.80;13.30;;;13.20;99.90;;;;;;4984495;28;20211;-88
2021/03/25 08:52:38;;;;;;;31.67;15.57;;;13.30;99.90;;;;;;4995834;28;20717;-91
2021/03/25 08:55:19;;;;;;;24.40;13.17;;;14.20;99.90;;;;;;4966554;28;20229;-89
2021/03/25 08:57:49;;;;;;;28.63;16.17;;;14.10;99.90;;;;;;4983787;28;20215;-88
2021/03/25 09:00:41;;;;;;;34.17;15.07;;;13.40;99.90;;;;;;4983841;28;20187;-89
2021/03/25 09:03:29;;;;;;;24.70;13.10;;;13.20;99.90;;;;;;4999252;28;20223;-90
2021/03/25 09:06:19;;;;;;;25.70;14.50;;;12.90;99.90;;;;;;4998789;28;20230;-89
2021/03/25 09:08:48;;;;;;;35.87;16.97;;;12.90;99.90;;;;;;4983890;28;20227;-89
2021/03/25 09:11:17;;;;;;;24.13;12.73;;;13.00;99.90;;;;;;4966210;28;20211;-89
2021/03/25 09:13:50;;;;;;;30.70;14.90;;;12.90;99.90;;;;;;4966434;28;20302;-89
2021/03/25 09:16:20;;;;;;;37.03;16.93;;;13.50;99.90;;;;;;4983721;28;20223;-89
2021/03/25 09:18:48;;;;;;;28.03;13.50;;;15.20;99.90;;;;;;4991393;28;20231;-90
2021/03/25 09:21:31;;;;;;;26.33;14.53;;;15.90;99.90;;;;;;4964500;28;20199;-89
2021/03/25 09:24:00;;;;;;;22.53;13.87;;;15.50;99.90;;;;;;4971662;28;20622;-91
2021/03/25 09:26:26;;;;;;;24.73;14.10;;;15.80;99.90;;;;;;4970634;28;20588;-91
2021/03/25 09:31:27;;;;;;;23.57;14.13;;;15.60;99.90;;;;;;4971397;28;20227;-91
2021/03/25 09:33:55;;;;;;;28.67;13.13;;;15.30;99.90;;;;;;4968465;28;21030;-89
2021/03/25 09:36:21;;;;;;;26.27;12.07;;;15.70;99.90;;;;;;4970389;28;20227;-89
2021/03/25 09:38:59;;;;;;;23.10;12.63;;;16.30;99.90;;;;;;4969930;28;20316;-91
2021/03/25 09:41:25;;;;;;;26.13;14.87;;;16.10;99.90;;;;;;4968433;28;21042;-91
2021/03/25 09:44:15;;;;;;;22.47;13.63;;;16.00;99.90;;;;;;4967426;28;20243;-89
2021/03/25 09:47:07;;;;;;;30.30;14.63;;;15.20;99.90;;;;;;4953884;28;20302;-90
2021/03/25 09:49:39;;;;;;;23.07;11.60;;;15.70;99.90;;;;;;4968417;28;20283;-89
2021/03/25 09:52:12;;;;;;;28.07;13.67;;;17.00;99.90;;;;;;4972343;28;20228;-91
2021/03/25 09:54:52;;;;;;;25.40;15.03;;;17.50;99.90;;;;;;4971144;28;20208;-93
2021/03/25 09:57:34;;;;;;;22.83;13.03;;;17.10;99.90;;;;;;4969805;28;20224;-91
2021/03/25 10:00:02;;;;;;;29.00;13.23;;;17.30;99.90;;;;;;4967787;28;20212;-92
2021/03/25 10:02:40;;;;;;;25.33;11.70;;;16.80;99.90;;;;;;4970193;28;20243;-92
2021/03/25 10:05:33;;;;;;;24.67;11.97;;;17.00;99.90;;;;;;4970019;28;20236;-91
2021/03/25 10:08:04;;;;;;;18.20;11.40;;;17.00;99.90;;;;;;4985681;28;20623;-91
2021/03/25 10:10:53;;;;;;;24.03;13.77;;;17.20;99.90;;;;;;4986498;28;20282;-93
2021/03/25 10:13:43;;;;;;;29.80;13.70;;;17.10;99.90;;;;;;4975959;28;20302;-92
2021/03/25 10:16:27;;;;;;;22.10;13.73;;;18.80;99.90;;;;;;4975909;28;20322;-91
2021/03/25 10:18:55;;;;;;;26.30;14.87;;;19.60;99.90;;;;;;4978133;28;20803;-92
2021/03/25 10:21:54;;;;;;;28.33;14.63;;;19.40;99.90;;;;;;5001922;28;20192;-91
2021/03/25 10:24:33;;;;;;;36.67;16.23;;;19.10;99.90;;;;;;4984896;28;20232;-93
2021/03/25 10:27:22;;;;;;;29.77;14.77;;;18.20;99.90;;;;;;4983001;28;20326;-91
2021/03/25 10:29:48;;;;;;;24.87;13.53;;;16.50;99.90;;;;;;4983151;28;20306;-92
2021/03/25 10:32:41;;;;;;;28.07;14.97;;;16.00;99.90;;;;;;4966685;28;20219;-92
2021/03/25 10:35:07;;;;;;;31.43;17.10;;;17.00;99.90;;;;;;4999964;28;20220;-92
2021/03/25 10:37:46;;;;;;;29.33;16.57;;;17.40;99.90;;;;;;4964707;28;20216;-90
2021/03/25 10:40:34;;;;;;;27.73;15.67;;;17.50;99.90;;;;;;4984104;28;20514;-92
2021/03/25 10:43:06;;;;;;;33.27;16.10;;;16.70;99.90;;;;;;4982320;28;20227;-92
2021/03/25 10:45:43;;;;;;;38.07;16.23;;;16.70;99.90;;;;;;4982469;28;20250;-93
2021/03/25 10:48:24;;;;;;;27.50;14.40;;;17.20;99.90;;;;;;5000327;28;20273;-91
2021/03/25 10:50:50;;;;;;;26.70;12.93;;;17.30;99.90;;;;;;4983669;28;20857;-92
2021/03/25 10:53:21;;;;;;;28.93;15.03;;;17.30;99.90;;;;;;4983144;28;20337;-91
2021/03/25 10:55:50;;;;;;;29.80;16.33;;;16.60;99.90;;;;;;4978786;28;20220;-90
2021/03/25 10:58:32;;;;;;;27.27;15.70;;;15.60;99.90;;;;;;4981862;28;20223;-91
2021/03/25 11:01:26;;;;;;;34.30;17.27;;;15.20;99.90;;;;;;4999319;28;20226;-92
2021/03/25 11:03:52;;;;;;;28.73;15.67;;;15.20;99.90;;;;;;4983095;28;20235;-91
2021/03/25 11:06:31;;;;;;;31.13;15.10;;;15.40;99.90;;;;;;4985717;28;20243;-90
2021/03/25 11:09:20;;;;;;;33.27;17.30;;;15.30;99.90;;;;;;4982424;28;20216;-92
2021/03/25 11:11:55;;;;;;;38.07;18.07;;;15.80;99.90;;;;;;4983633;28;20226;-93
2021/03/25 11:14:32;;;;;;;37.43;17.23;;;15.40;99.90;;;;;;4996595;28;20215;-89
2021/03/25 11:17:03;;;;;;;31.57;16.43;;;15.90;99.90;;;;;;4977574;28;20223;-91
2021/03/25 11:19:30;;;;;;;35.13;17.23;;;15.80;99.90;;;;;;4970054;28;20732;-90
2021/03/25 11:21:58;;;;;;;29.50;15.13;;;15.70;99.90;;;;;;4988067;28;20223;-92
2021/03/25 11:24:29;;;;;;;27.20;14.17;;;16.20;99.90;;;;;;4974273;28;20212;-91
2021/03/25 11:27:03;;;;;;;31.83;16.23;;;15.50;99.90;;;;;;4975277;28;20248;-91
2021/03/25 11:29:33;;;;;;;27.50;14.77;;;14.90;99.90;;;;;;4965910;28;20256;-90
2021/03/25 11:32:16;;;;;;;32.33;15.60;;;14.00;99.90;;;;;;4964221;28;20227;-89
2021/03/25 11:34:44;;;;;;;33.43;15.40;;;13.70;99.90;;;;;;4968456;28;20223;-90
2021/03/25 11:37:32;;;;;;;28.33;13.23;;;13.40;99.90;;;;;;4966837;28;20223;-90
2021/03/25 11:40:09;;;;;;;29.67;14.00;;;13.00;99.90;;;;;;4970094;28;20311;-89
2021/03/25 11:42:35;;;;;;;24.23;13.83;;;13.00;99.90;;;;;;4973053;28;20199;-91
2021/03/25 11:45:02;;;;;;;32.13;14.63;;;12.80;99.90;;;;;;4953106;28;20221;-90
2021/03/25 11:47:31;;;;;;;31.03;14.03;;;12.80;99.90;;;;;;4945500;28;20266;-91
2021/03/25 11:49:57;;;;;;;29.00;13.27;;;12.80;99.90;;;;;;4962455;28;20324;-90
2021/03/25 11:52:26;;;;;;;28.60;12.93;;;12.70;99.90;;;;;;4968573;28;20223;-90
2021/03/25 11:55:04;;;;;;;30.37;14.97;;;12.30;99.90;;;;;;4959479;28;20317;-92
2021/03/25 11:57:35;;;;;;;22.23;12.17;;;12.30;99.90;;;;;;4968508;28;20303;-91
2021/03/25 12:00:34;;;;;;;25.73;13.30;;;12.10;99.90;;;;;;4971576;28;20194;-90
2021/03/25 12:03:15;;;;;;;21.70;12.10;;;12.00;99.90;;;;;;4901152;28;20217;-91
2021/03/25 12:05:44;;;;;;;28.47;14.57;;;11.90;99.90;;;;;;4985319;28;20209;-92
2021/03/25 12:08:14;;;;;;;25.40;14.03;;;12.10;99.90;;;;;;4983677;28;20226;-91
2021/03/25 12:10:41;;;;;;;28.47;13.33;;;12.30;99.90;;;;;;4967625;28;20229;-90
2021/03/25 12:13:08;;;;;;;28.60;14.87;;;12.50;99.90;;;;;;4968446;28;20216;-90
2021/03/25 12:15:35;;;;;;;24.73;13.83;;;12.60;99.90;;;;;;4973706;28;20235;-90
2021/03/25 12:18:06;;;;;;;23.93;12.20;;;12.80;99.90;;;;;;4959057;28;20266;-91
2021/03/25 12:20:37;;;;;;;29.17;10.60;;;12.70;99.90;;;;;;5001726;28;20219;-90
2021/03/25 12:23:25;;;;;;;22.27;12.50;;;12.90;99.90;;;;;;4984964;28;20222;-91
2021/03/25 12:25:54;;;;;;;22.97;11.23;;;12.90;99.90;;;;;;4991411;28;20311;-92
2021/03/25 12:28:24;;;;;;;28.07;14.37;;;13.10;99.90;;;;;;4968690;28;20226;-92
2021/03/25 12:30:53;;;;;;;19.60;11.07;;;12.90;99.90;;;;;;4981650;28;20236;-92
2021/03/25 12:33:25;;;;;;;28.73;11.33;;;12.80;99.90;;;;;;4979380;28;20292;-91
2021/03/25 12:35:53;;;;;;;25.87;12.20;;;12.80;99.90;;;;;;4984446;28;20215;-89
2021/03/25 12:38:19;;;;;;;19.70;12.80;;;12.80;99.90;;;;;;5002294;28;20227;-90
2021/03/25 12:40:45;;;;;;;19.90;9.43;;;13.10;99.90;;;;;;4968184;28;20223;-91
2021/03/25 12:43:23;;;;;;;17.33;9.43;;;12.90;99.90;;;;;;5002638;28;20239;-90
2021/03/25 12:46:12;;;;;;;16.97;10.07;;;12.70;99.90;;;;;;5003438;28;20227;-90
2021/03/25 12:48:38;;;;;;;18.83;9.73;;;12.70;99.90;;;;;;4984718;28;20287;-90
2021/03/25 12:51:07;;;;;;;22.77;11.10;;;13.10;99.90;;;;;;4978935;28;20727;-91
2021/03/25 12:53:34;;;;;;;17.80;9.80;;;13.10;99.90;;;;;;4984128;28;20338;-90
2021/03/25 12:56:02;;;;;;;16.40;9.90;;;12.60;99.90;;;;;;4969066;28;20215;-90
2021/03/25 12:58:31;;;;;;;12.93;8.60;;;12.50;99.90;;;;;;4992245;28;20222;-90
2021/03/25 13:00:58;;;;;;;19.57;9.87;;;12.40;99.90;;;;;;5000600;28;20233;-90
2021/03/25 13:03:24;;;;;;;19.47;9.87;;;12.40;99.90;;;;;;4953128;28;20273;-91
2021/03/25 13:05:50;;;;;;;13.63;7.47;;;12.70;99.90;;;;;;4984690;28;20752;-90
2021/03/25 13:08:16;;;;;;;14.67;9.03;;;12.90;99.90;;;;;;4959092;28;20234;-90
2021/03/25 13:10:42;;;;;;;13.87;8.10;;;13.00;99.90;;;;;;4969002;28;21086;-91
2021/03/25 13:13:09;;;;;;;15.57;8.47;;;13.10;99.90;;;;;;4969919;28;20219;-92
2021/03/25 13:15:35;;;;;;;13.47;7.50;;;12.70;99.90;;;;;;4985462;28;20191;-91